Time;durP1;ratioP1;P1;durP2;ratioP2;P2;SDS_P1;SDS_P2;PMS_P1;PMS_P2;Temp;Humidity;BMP_temperature;BMP_pressure;BME280_temperature;BME280_humidity;BME280_pressure;Samples;Min_cycle;Max_cycle;Signal;HPM_P1;HPM_P2
2024/03/06 00:02:30;;;;;;;49.78;6.28;;;;;;;;;;5841154;28;20049;-80
2024/03/06 00:05:21;;;;;;;26.33;4.55;;;;;;;;;;5839480;28;20069;-80
2024/03/06 00:08:12;;;;;;;29.55;9.10;;;;;;;;;;5840921;28;20107;-79
2024/03/06 00:11:03;;;;;;;74.47;9.00;;;;;;;;;;5839393;28;20050;-79
2024/03/06 00:13:54;;;;;;;46.25;4.57;;;;;;;;;;5840199;28;20462;-80
2024/03/06 00:16:45;;;;;;;43.38;5.85;;;;;;;;;;5839248;28;20468;-80
2024/03/06 00:19:36;;;;;;;35.55;5.05;;;;;;;;;;5840368;28;20092;-80
2024/03/06 00:22:27;;;;;;;49.60;7.70;;;;;;;;;;5839233;28;20408;-80
2024/03/06 00:25:18;;;;;;;47.80;5.78;;;;;;;;;;5839194;28;20049;-80
2024/03/06 00:28:09;;;;;;;37.33;12.20;;;;;;;;;;5839042;28;20050;-80
2024/03/06 00:30:59;;;;;;;102.40;13.13;;;;;;;;;;5872073;28;20141;-80
2024/03/06 00:33:50;;;;;;;14.98;9.20;;;;;;;;;;5871947;28;20050;-80
2024/03/06 00:36:43;;;;;;;17.88;5.90;;;;;;;;;;5839180;28;20041;-80
2024/03/06 00:39:34;;;;;;;8.40;3.92;;;;;;;;;;5838909;28;20125;-81
2024/03/06 00:42:25;;;;;;;31.20;7.10;;;;;;;;;;5838651;28;20389;-80
2024/03/06 00:45:16;;;;;;;7.72;4.28;;;;;;;;;;5838928;28;20056;-80
2024/03/06 00:48:07;;;;;;;23.08;7.70;;;;;;;;;;5838878;28;20057;-80
2024/03/06 00:50:58;;;;;;;29.15;7.03;;;;;;;;;;5840430;28;20057;-80
2024/03/06 00:53:49;;;;;;;43.00;8.05;;;;;;;;;;5838533;28;20038;-81
2024/03/06 00:56:40;;;;;;;35.20;8.15;;;;;;;;;;5838716;28;20505;-80
2024/03/06 00:59:31;;;;;;;35.28;6.97;;;;;;;;;;5838669;28;20042;-80
2024/03/06 01:02:22;;;;;;;53.67;9.90;;;;;;;;;;5859942;28;20060;-80
2024/03/06 01:05:13;;;;;;;7.55;4.13;;;;;;;;;;5861365;28;20081;-80
2024/03/06 01:08:05;;;;;;;50.63;6.22;;;;;;;;;;5862553;28;20037;-80
2024/03/06 01:10:55;;;;;;;19.27;5.47;;;;;;;;;;5861729;28;20515;-80
2024/03/06 01:13:47;;;;;;;5.22;3.65;;;;;;;;;;5861283;28;20049;-81
2024/03/06 01:16:37;;;;;;;50.70;7.70;;;;;;;;;;5861238;28;20119;-80
2024/03/06 01:19:28;;;;;;;97.60;9.00;;;;;;;;;;5861065;28;20120;-81
2024/03/06 01:22:19;;;;;;;66.72;8.98;;;;;;;;;;5862529;28;20045;-81
2024/03/06 01:25:10;;;;;;;78.90;7.03;;;;;;;;;;5861267;28;20045;-80
2024/03/06 01:28:00;;;;;;;57.28;9.27;;;;;;;;;;5861298;28;20052;-81
2024/03/06 01:30:51;;;;;;;12.25;4.03;;;;;;;;;;5877349;28;20047;-80
2024/03/06 01:33:42;;;;;;;81.70;10.20;;;;;;;;;;5862573;28;20562;-81
2024/03/06 01:36:33;;;;;;;9.02;3.50;;;;;;;;;;5860755;28;20061;-80
2024/03/06 01:39:23;;;;;;;50.65;7.35;;;;;;;;;;5862408;28;20053;-80
2024/03/06 01:42:18;;;;;;;28.10;5.78;;;;;;;;;;5861273;28;20407;-80
2024/03/06 01:45:09;;;;;;;19.13;6.28;;;;;;;;;;5861321;28;20107;-80
2024/03/06 01:48:00;;;;;;;64.20;9.10;;;;;;;;;;5861253;28;20072;-80
2024/03/06 01:50:55;;;;;;;34.83;4.28;;;;;;;;;;5862182;28;20041;-80
2024/03/06 01:53:46;;;;;;;10.30;4.10;;;;;;;;;;5864446;28;20042;-80
2024/03/06 01:56:43;;;;;;;35.85;6.65;;;;;;;;;;5865349;28;20041;-80
2024/03/06 01:59:34;;;;;;;75.25;10.95;;;;;;;;;;5865835;28;20056;-80
2024/03/06 02:02:27;;;;;;;17.25;4.60;;;;;;;;;;5865183;28;20672;-80
2024/03/06 02:05:18;;;;;;;46.10;4.97;;;;;;;;;;5865101;28;20088;-80
2024/03/06 02:08:10;;;;;;;58.67;5.90;;;;;;;;;;5864999;28;20187;-80
2024/03/06 02:11:03;;;;;;;29.83;6.40;;;;;;;;;;5864941;28;20056;-79
2024/03/06 02:13:54;;;;;;;4.85;3.10;;;;;;;;;;5881748;28;20128;-80
2024/03/06 02:16:45;;;;;;;30.67;5.47;;;;;;;;;;5864905;28;20044;-80
2024/03/06 02:19:44;;;;;;;14.20;4.90;;;;;;;;;;5865100;28;20052;-80
2024/03/06 02:22:34;;;;;;;12.25;5.07;;;;;;;;;;5864890;28;20134;-80
2024/03/06 02:25:25;;;;;;;12.65;5.22;;;;;;;;;;5881370;28;20418;-80
2024/03/06 02:28:17;;;;;;;16.80;5.20;;;;;;;;;;5865922;28;20042;-80
2024/03/06 02:31:08;;;;;;;8.85;4.28;;;;;;;;;;5865829;28;20045;-80
2024/03/06 02:33:58;;;;;;;28.90;5.60;;;;;;;;;;5864901;28;20046;-80
2024/03/06 02:36:51;;;;;;;13.00;5.57;;;;;;;;;;5864380;28;20041;-80
2024/03/06 02:39:42;;;;;;;31.60;4.53;;;;;;;;;;5864478;28;20606;-80
2024/03/06 02:42:33;;;;;;;29.95;3.72;;;;;;;;;;5831894;28;20053;-80
2024/03/06 02:45:24;;;;;;;8.65;3.63;;;;;;;;;;5865616;28;20055;-80
2024/03/06 02:48:15;;;;;;;21.88;4.68;;;;;;;;;;5864119;28;20049;-80
2024/03/06 02:51:06;;;;;;;14.95;4.45;;;;;;;;;;5864249;28;20164;-80
2024/03/06 02:53:57;;;;;;;24.38;5.70;;;;;;;;;;5848928;28;20436;-80
2024/03/06 02:56:47;;;;;;;3.92;2.28;;;;;;;;;;5863616;28;20048;-80
2024/03/06 02:59:40;;;;;;;6.53;3.60;;;;;;;;;;5863984;28;20383;-80
2024/03/06 03:02:31;;;;;;;21.30;5.53;;;;;;;;;;5847673;28;20046;-80
2024/03/06 03:05:22;;;;;;;7.43;4.75;;;;;;;;;;5863810;28;20060;-80
2024/03/06 03:08:12;;;;;;;13.45;3.40;;;;;;;;;;5880522;28;20171;-79
2024/03/06 03:11:03;;;;;;;6.72;3.53;;;;;;;;;;5863757;28;20052;-80
2024/03/06 03:13:54;;;;;;;5.43;3.75;;;;;;;;;;5864109;28;20041;-80
2024/03/06 03:16:45;;;;;;;10.68;4.78;;;;;;;;;;5847290;28;20041;-80
2024/03/06 03:19:39;;;;;;;4.80;3.15;;;;;;;;;;5863375;28;20041;-80
2024/03/06 03:22:31;;;;;;;28.88;3.72;;;;;;;;;;5863404;28;20045;-80
2024/03/06 03:25:21;;;;;;;10.10;4.68;;;;;;;;;;5864848;28;20041;-80
2024/03/06 03:28:13;;;;;;;7.20;3.67;;;;;;;;;;5863485;28;20052;-80
2024/03/06 03:31:04;;;;;;;48.20;7.63;;;;;;;;;;5863248;28;20053;-80
2024/03/06 03:33:54;;;;;;;12.88;3.45;;;;;;;;;;5864180;28;20056;-80
2024/03/06 03:36:45;;;;;;;7.45;3.53;;;;;;;;;;5863057;28;20045;-80
2024/03/06 03:39:36;;;;;;;6.97;3.70;;;;;;;;;;5864462;28;20049;-80
2024/03/06 03:42:27;;;;;;;3.60;2.80;;;;;;;;;;5863021;28;20045;-80
2024/03/06 03:45:20;;;;;;;8.50;4.68;;;;;;;;;;5862977;28;20050;-80
2024/03/06 03:48:10;;;;;;;5.22;2.85;;;;;;;;;;5863047;28;20053;-80
2024/03/06 03:51:06;;;;;;;6.03;3.60;;;;;;;;;;5862882;28;20133;-79
2024/03/06 03:53:58;;;;;;;6.25;4.55;;;;;;;;;;5863565;28;20045;-80
2024/03/06 03:56:49;;;;;;;4.30;3.03;;;;;;;;;;5862653;28;20048;-80
2024/03/06 03:59:41;;;;;;;8.07;4.45;;;;;;;;;;5864233;28;20045;-80
2024/03/06 04:02:32;;;;;;;5.60;2.83;;;;;;;;;;5862260;28;20041;-80
2024/03/06 04:05:23;;;;;;;5.75;2.53;;;;;;;;;;5862355;28;20052;-80
2024/03/06 04:08:14;;;;;;;8.10;4.05;;;;;;;;;;5878911;28;20057;-80
2024/03/06 04:11:05;;;;;;;13.13;3.40;;;;;;;;;;5862367;28;20060;-80
2024/03/06 04:13:56;;;;;;;6.18;3.83;;;;;;;;;;5864188;28;20126;-80
2024/03/06 04:16:47;;;;;;;12.77;4.32;;;;;;;;;;5862954;28;20045;-80
2024/03/06 04:19:38;;;;;;;8.98;3.80;;;;;;;;;;5862190;28;20092;-80
2024/03/06 04:22:29;;;;;;;8.35;3.45;;;;;;;;;;5863511;28;20534;-80
2024/03/06 04:25:20;;;;;;;6.85;3.53;;;;;;;;;;5862356;28;20054;-80
2024/03/06 04:28:10;;;;;;;7.90;4.13;;;;;;;;;;5878705;28;20380;-80
2024/03/06 04:31:01;;;;;;;5.63;3.53;;;;;;;;;;5862960;28;20049;-80
2024/03/06 04:33:52;;;;;;;11.07;5.82;;;;;;;;;;5862531;28;20049;-81
2024/03/06 04:36:43;;;;;;;9.95;5.80;;;;;;;;;;5878556;28;20045;-80
2024/03/06 04:39:34;;;;;;;8.05;4.47;;;;;;;;;;5863085;28;20186;-81
2024/03/06 04:42:24;;;;;;;13.90;4.90;;;;;;;;;;5862049;28;20049;-80
2024/03/06 04:45:17;;;;;;;10.25;4.22;;;;;;;;;;5862065;28;20053;-80
2024/03/06 04:48:08;;;;;;;12.80;5.63;;;;;;;;;;5863230;28;20400;-80
2024/03/06 04:50:58;;;;;;;7.38;5.32;;;;;;;;;;5861911;28;20450;-80
2024/03/06 04:53:49;;;;;;;16.08;7.28;;;;;;;;;;5861721;28;20045;-80
2024/03/06 04:56:40;;;;;;;11.70;7.45;;;;;;;;;;5861514;28;20488;-81
2024/03/06 04:59:31;;;;;;;9.60;7.70;;;;;;;;;;5878016;28;20056;-80
2024/03/06 05:02:23;;;;;;;14.05;6.85;;;;;;;;;;5861353;28;20046;-80
2024/03/06 05:05:13;;;;;;;15.77;7.85;;;;;;;;;;5861225;28;20064;-80
2024/03/06 05:08:22;;;;;;;7.37;5.87;;;;;;;;;;5861723;28;20605;-80
2024/03/06 05:11:31;;;;;;;8.53;5.03;;;;;;;;;;5861455;28;20613;-81
2024/03/06 05:14:39;;;;;;;6.25;4.38;;;;;;;;;;5861914;28;20081;-81
2024/03/06 05:17:47;;;;;;;7.10;4.63;;;;;;;;;;5862785;28;20103;-81
2024/03/06 05:20:56;;;;;;;9.77;4.32;;;;;;;;;;5861580;28;20064;-81
2024/03/06 05:24:04;;;;;;;6.45;4.28;;;;;;;;;;5839382;28;20119;-81
2024/03/06 05:27:16;;;;;;;6.32;4.28;;;;;;;;;;5839355;28;20052;-80
2024/03/06 05:30:24;;;;;;;8.85;4.97;;;;;;;;;;5843740;28;20084;-81
2024/03/06 05:33:33;;;;;;;6.83;5.50;;;;;;;;;;5844190;28;20172;-81
2024/03/06 05:36:41;;;;;;;8.27;4.83;;;;;;;;;;5844760;28;20049;-80
2024/03/06 05:39:49;;;;;;;9.90;4.73;;;;;;;;;;5844075;28;20056;-81
2024/03/06 05:42:57;;;;;;;4.75;3.90;;;;;;;;;;5843187;28;20045;-81
2024/03/06 05:46:05;;;;;;;7.90;4.93;;;;;;;;;;5841079;28;20068;-81
2024/03/06 05:49:14;;;;;;;9.77;4.80;;;;;;;;;;5844358;28;20048;-81
2024/03/06 05:52:22;;;;;;;5.18;4.68;;;;;;;;;;5842574;28;20177;-81
2024/03/06 05:55:30;;;;;;;10.38;5.63;;;;;;;;;;5846278;28;20184;-81
2024/03/06 05:58:39;;;;;;;6.88;4.45;;;;;;;;;;5845769;28;20037;-81
2024/03/06 06:01:34;;;;;;;6.40;4.93;;;;;;;;;;5842577;28;20115;-80
2024/03/06 06:04:25;;;;;;;7.82;4.30;;;;;;;;;;5843161;28;20054;-81
2024/03/06 06:07:18;;;;;;;12.88;5.38;;;;;;;;;;5858831;28;20423;-80
2024/03/06 06:10:09;;;;;;;4.43;3.75;;;;;;;;;;5842248;28;20358;-79
2024/03/06 06:13:01;;;;;;;10.88;6.80;;;;;;;;;;5842094;28;20050;-79
2024/03/06 06:15:52;;;;;;;9.63;5.50;;;;;;;;;;5842606;28;20184;-80
2024/03/06 06:18:43;;;;;;;14.07;5.80;;;;;;;;;;5842267;28;20048;-80
2024/03/06 06:21:35;;;;;;;9.43;6.43;;;;;;;;;;5842021;28;20046;-80
2024/03/06 06:24:26;;;;;;;8.38;5.55;;;;;;;;;;5841848;28;20045;-80
2024/03/06 06:27:17;;;;;;;8.27;5.28;;;;;;;;;;5848462;28;20065;-80
2024/03/06 06:30:11;;;;;;;7.75;5.55;;;;;;;;;;5843751;28;20050;-80
2024/03/06 06:33:04;;;;;;;9.13;4.57;;;;;;;;;;5825751;28;20611;-79
2024/03/06 06:35:55;;;;;;;8.73;4.88;;;;;;;;;;5842436;28;20046;-80
2024/03/06 06:38:47;;;;;;;8.23;5.27;;;;;;;;;;5841062;28;20041;-80
2024/03/06 06:41:38;;;;;;;8.27;5.75;;;;;;;;;;5841702;28;20064;-80
2024/03/06 06:44:29;;;;;;;14.65;7.15;;;;;;;;;;5841230;28;20046;-80
2024/03/06 06:47:20;;;;;;;10.13;5.43;;;;;;;;;;5841605;28;20054;-80
2024/03/06 06:50:12;;;;;;;9.38;5.93;;;;;;;;;;5842426;28;20548;-79
2024/03/06 06:53:03;;;;;;;5.07;4.63;;;;;;;;;;5841260;28;20389;-79
2024/03/06 06:55:54;;;;;;;12.75;5.43;;;;;;;;;;5841149;28;20077;-80
2024/03/06 06:58:45;;;;;;;7.22;4.80;;;;;;;;;;5841437;28;20117;-80
2024/03/06 07:01:36;;;;;;;7.95;5.78;;;;;;;;;;5840763;28;20065;-80
2024/03/06 07:04:27;;;;;;;6.88;3.78;;;;;;;;;;5840855;28;20045;-80
2024/03/06 07:07:18;;;;;;;16.38;5.90;;;;;;;;;;5840983;28;20050;-80
2024/03/06 07:10:09;;;;;;;7.20;5.38;;;;;;;;;;5824724;28;20054;-80
2024/03/06 07:13:00;;;;;;;7.95;5.78;;;;;;;;;;5841103;28;20053;-80
2024/03/06 07:15:52;;;;;;;6.50;5.00;;;;;;;;;;5840910;28;20046;-80
2024/03/06 07:18:43;;;;;;;8.00;6.03;;;;;;;;;;5842147;28;20046;-80
2024/03/06 07:21:34;;;;;;;5.63;4.32;;;;;;;;;;5841684;28;20052;-80
2024/03/06 07:24:25;;;;;;;7.55;5.45;;;;;;;;;;5841132;28;20050;-80
2024/03/06 07:27:16;;;;;;;10.43;5.07;;;;;;;;;;5843753;28;20046;-80
2024/03/06 07:30:08;;;;;;;9.00;4.85;;;;;;;;;;5842521;28;20108;-80
2024/03/06 07:33:02;;;;;;;9.23;5.30;;;;;;;;;;5843171;28;20615;-80
2024/03/06 07:35:53;;;;;;;11.20;7.10;;;;;;;;;;5859921;28;20042;-80
2024/03/06 07:38:44;;;;;;;12.07;7.22;;;;;;;;;;5845775;28;20049;-80
2024/03/06 07:41:35;;;;;;;8.88;6.47;;;;;;;;;;5843153;28;20439;-81
2024/03/06 07:44:26;;;;;;;7.28;6.55;;;;;;;;;;5844136;28;20137;-80
2024/03/06 07:47:17;;;;;;;5.55;4.70;;;;;;;;;;5845002;28;20042;-80
2024/03/06 07:50:10;;;;;;;10.27;8.48;;;;;;;;;;5841068;28;20052;-79
2024/03/06 07:53:02;;;;;;;10.38;7.22;;;;;;;;;;5842387;28;20057;-79
2024/03/06 07:55:53;;;;;;;7.28;6.13;;;;;;;;;;5842657;28;20045;-80
2024/03/06 07:58:44;;;;;;;10.68;6.45;;;;;;;;;;5859226;28;20074;-80
2024/03/06 08:01:35;;;;;;;6.75;6.07;;;;;;;;;;5841346;28;20052;-80
2024/03/06 08:04:27;;;;;;;10.20;6.88;;;;;;;;;;5841319;28;20121;-80
2024/03/06 08:07:18;;;;;;;7.30;5.75;;;;;;;;;;5840614;28;20049;-80
2024/03/06 08:10:13;;;;;;;10.05;5.32;;;;;;;;;;5839541;28;20044;-79
2024/03/06 08:13:04;;;;;;;11.27;8.35;;;;;;;;;;5840608;28;20060;-80
2024/03/06 08:15:55;;;;;;;9.75;7.20;;;;;;;;;;5840172;28;20448;-80
2024/03/06 08:18:46;;;;;;;8.57;6.18;;;;;;;;;;5839835;28;20046;-80
2024/03/06 08:21:37;;;;;;;11.38;6.15;;;;;;;;;;5855584;28;20042;-80
2024/03/06 08:24:27;;;;;;;10.80;5.72;;;;;;;;;;5840318;28;20050;-80
2024/03/06 08:27:19;;;;;;;7.15;5.53;;;;;;;;;;5838913;28;20050;-80
2024/03/06 08:30:10;;;;;;;9.02;5.78;;;;;;;;;;5839198;28;20100;-80
2024/03/06 08:33:01;;;;;;;8.55;4.97;;;;;;;;;;5838991;28;20054;-79
2024/03/06 08:35:52;;;;;;;9.73;6.22;;;;;;;;;;5840785;28;20046;-80
2024/03/06 08:38:43;;;;;;;9.75;5.05;;;;;;;;;;5839091;28;20129;-80
2024/03/06 08:41:35;;;;;;;5.47;4.88;;;;;;;;;;5838641;28;20496;-80
2024/03/06 08:44:27;;;;;;;6.53;5.65;;;;;;;;;;5838913;28;20133;-79
2024/03/06 08:47:19;;;;;;;6.40;5.88;;;;;;;;;;5838930;28;20127;-79
2024/03/06 08:50:11;;;;;;;7.68;5.05;;;;;;;;;;5838995;28;20120;-79
2024/03/06 08:53:02;;;;;;;6.50;5.90;;;;;;;;;;5838854;28;20077;-79
2024/03/06 08:55:53;;;;;;;6.40;5.72;;;;;;;;;;5840749;28;20095;-80
2024/03/06 08:58:44;;;;;;;9.27;6.05;;;;;;;;;;5839054;28;20535;-80
2024/03/06 09:01:35;;;;;;;10.25;6.50;;;;;;;;;;5839867;28;20045;-80
2024/03/06 09:04:26;;;;;;;9.75;6.78;;;;;;;;;;5822434;28;20046;-80
2024/03/06 09:07:17;;;;;;;10.95;5.38;;;;;;;;;;5838288;28;20042;-80
2024/03/06 09:10:12;;;;;;;6.82;5.55;;;;;;;;;;5838751;28;20046;-80
2024/03/06 09:13:04;;;;;;;8.18;5.32;;;;;;;;;;5838947;28;20432;-79
2024/03/06 09:15:54;;;;;;;9.73;6.88;;;;;;;;;;5838881;28;20125;-80
2024/03/06 09:18:46;;;;;;;6.47;5.28;;;;;;;;;;5838750;28;20121;-80
2024/03/06 09:21:37;;;;;;;17.77;7.93;;;;;;;;;;5838250;28;20634;-80
2024/03/06 09:24:28;;;;;;;13.77;9.55;;;;;;;;;;5839460;28;20136;-80
2024/03/06 09:27:19;;;;;;;7.10;6.32;;;;;;;;;;5837919;28;20117;-80
2024/03/06 09:30:13;;;;;;;6.13;4.72;;;;;;;;;;5838906;28;20050;-80
2024/03/06 09:33:04;;;;;;;9.02;5.85;;;;;;;;;;5837839;28;20053;-80
2024/03/06 09:35:57;;;;;;;15.57;8.32;;;;;;;;;;5838659;28;20581;-80
2024/03/06 09:38:48;;;;;;;10.68;7.55;;;;;;;;;;5838560;28;20052;-80
2024/03/06 09:41:42;;;;;;;8.15;5.07;;;;;;;;;;5838585;28;20065;-80
2024/03/06 09:44:34;;;;;;;6.72;5.75;;;;;;;;;;5837148;28;20132;-80
2024/03/06 09:47:26;;;;;;;12.88;7.68;;;;;;;;;;5837465;28;20129;-80
2024/03/06 09:50:23;;;;;;;11.23;6.85;;;;;;;;;;5837477;28;20046;-80
2024/03/06 09:53:15;;;;;;;8.00;6.68;;;;;;;;;;5838451;28;20064;-80
2024/03/06 09:56:08;;;;;;;10.77;7.45;;;;;;;;;;5837265;28;20057;-80
2024/03/06 09:58:59;;;;;;;10.77;6.25;;;;;;;;;;5829568;28;20043;-80
2024/03/06 10:01:57;;;;;;;7.60;5.25;;;;;;;;;;5837451;28;20038;-80
2024/03/06 10:04:48;;;;;;;7.47;6.13;;;;;;;;;;5837297;28;20506;-81
2024/03/06 10:07:41;;;;;;;8.38;6.65;;;;;;;;;;5837077;28;20068;-81
2024/03/06 10:10:32;;;;;;;9.32;6.50;;;;;;;;;;5837212;28;20065;-80
2024/03/06 10:13:25;;;;;;;12.40;7.00;;;;;;;;;;5821835;28;20045;-80
2024/03/06 10:16:16;;;;;;;12.05;5.75;;;;;;;;;;5841584;28;20046;-81
2024/03/06 10:19:19;;;;;;;8.35;5.28;;;;;;;;;;5825474;28;20170;-80
2024/03/06 10:22:10;;;;;;;9.23;6.43;;;;;;;;;;5841255;28;20148;-81
2024/03/06 10:25:01;;;;;;;7.97;7.13;;;;;;;;;;5842797;28;20064;-80
2024/03/06 10:28:09;;;;;;;9.95;5.47;;;;;;;;;;5825410;28;20125;-80
2024/03/06 10:31:08;;;;;;;9.05;5.50;;;;;;;;;;5865551;28;20076;-81
2024/03/06 10:33:59;;;;;;;8.27;6.38;;;;;;;;;;5841188;28;20050;-80
2024/03/06 10:36:57;;;;;;;11.77;7.38;;;;;;;;;;5841439;28;20595;-81
2024/03/06 10:39:54;;;;;;;7.32;4.45;;;;;;;;;;5824799;28;20052;-80
2024/03/06 10:42:45;;;;;;;8.80;6.60;;;;;;;;;;5840877;28;20707;-80
2024/03/06 10:45:50;;;;;;;9.95;6.95;;;;;;;;;;5824853;28;20404;-80
2024/03/06 10:48:42;;;;;;;9.27;6.38;;;;;;;;;;5841102;28;20459;-80
2024/03/06 10:51:34;;;;;;;13.90;8.13;;;;;;;;;;5840813;28;20449;-80
2024/03/06 10:54:30;;;;;;;8.38;6.15;;;;;;;;;;5840962;28;20385;-80
2024/03/06 10:57:21;;;;;;;7.63;5.03;;;;;;;;;;5840507;28;20049;-81
2024/03/06 11:00:18;;;;;;;8.52;5.70;;;;;;;;;;5840528;28;20053;-80
2024/03/06 11:03:13;;;;;;;12.10;6.90;;;;;;;;;;5840764;28;20496;-81
2024/03/06 11:06:05;;;;;;;12.80;5.88;;;;;;;;;;5840983;28;20053;-80
2024/03/06 11:08:56;;;;;;;12.65;4.85;;;;;;;;;;5841650;28;20045;-81
2024/03/06 11:11:52;;;;;;;5.00;4.53;;;;;;;;;;5840203;28;20180;-81
2024/03/06 11:14:43;;;;;;;6.72;5.53;;;;;;;;;;5824763;28;20135;-80
2024/03/06 11:17:43;;;;;;;6.55;5.60;;;;;;;;;;5857253;28;20052;-81
2024/03/06 11:20:34;;;;;;;7.40;5.32;;;;;;;;;;5825307;28;20127;-81
2024/03/06 11:23:25;;;;;;;7.75;4.32;;;;;;;;;;5839977;28;20042;-80
2024/03/06 11:26:17;;;;;;;12.75;8.68;;;;;;;;;;5839889;28;20045;-80
2024/03/06 11:29:08;;;;;;;14.93;6.57;;;;;;;;;;5824508;28;20519;-81
2024/03/06 11:32:07;;;;;;;7.65;5.65;;;;;;;;;;5840911;28;20084;-81
2024/03/06 11:35:00;;;;;;;8.38;4.80;;;;;;;;;;5825380;28;20511;-80
2024/03/06 11:37:54;;;;;;;10.90;6.70;;;;;;;;;;5833200;28;20042;-80
2024/03/06 11:40:48;;;;;;;6.60;4.03;;;;;;;;;;5864219;28;20392;-80
2024/03/06 11:43:46;;;;;;;7.15;6.43;;;;;;;;;;5863367;28;20855;-81
2024/03/06 11:47:04;;;;;;;7.15;5.90;;;;;;;;;;5863602;28;20099;-80
2024/03/06 11:49:55;;;;;;;18.52;12.43;;;;;;;;;;5848936;28;20462;-80
2024/03/06 11:52:47;;;;;;;16.13;12.38;;;;;;;;;;5863194;28;20128;-80
2024/03/06 11:55:37;;;;;;;8.82;7.95;;;;;;;;;;5863565;28;20053;-80
2024/03/06 11:58:29;;;;;;;12.70;9.63;;;;;;;;;;5863354;28;20033;-80
2024/03/06 12:01:20;;;;;;;13.48;9.48;;;;;;;;;;5862258;28;20064;-80
2024/03/06 12:04:11;;;;;;;9.65;8.63;;;;;;;;;;5862684;28;20057;-80
2024/03/06 12:07:05;;;;;;;11.40;6.10;;;;;;;;;;5862801;28;20046;-80
2024/03/06 12:09:57;;;;;;;10.35;7.80;;;;;;;;;;5863067;28;20103;-80
2024/03/06 12:12:48;;;;;;;8.85;7.95;;;;;;;;;;5862868;28;20107;-80
2024/03/06 12:15:44;;;;;;;14.13;8.27;;;;;;;;;;5862555;28;20562;-80
2024/03/06 12:18:36;;;;;;;13.13;9.02;;;;;;;;;;5862896;28;20041;-80
2024/03/06 12:21:34;;;;;;;16.30;10.30;;;;;;;;;;5863849;28;20069;-80
2024/03/06 12:24:25;;;;;;;11.53;9.53;;;;;;;;;;5862852;28;20052;-80
2024/03/06 12:27:22;;;;;;;9.70;6.75;;;;;;;;;;5862552;28;20053;-80
2024/03/06 12:30:17;;;;;;;13.43;8.93;;;;;;;;;;5862318;28;20515;-80
2024/03/06 12:33:09;;;;;;;13.65;7.30;;;;;;;;;;5862076;28;20045;-80
2024/03/06 12:36:06;;;;;;;12.50;6.65;;;;;;;;;;5863701;28;20060;-80
2024/03/06 12:39:03;;;;;;;7.70;4.05;;;;;;;;;;5871348;28;20356;-80
2024/03/06 12:41:54;;;;;;;4.63;4.20;;;;;;;;;;5861910;28;20044;-80
2024/03/06 12:44:45;;;;;;;5.32;4.82;;;;;;;;;;5863161;28;20041;-80
2024/03/06 12:47:37;;;;;;;4.03;3.63;;;;;;;;;;5845791;28;20088;-80
2024/03/06 12:50:28;;;;;;;5.15;3.35;;;;;;;;;;5877915;28;20051;-80
2024/03/06 12:53:21;;;;;;;5.72;5.07;;;;;;;;;;5861837;28;20104;-80
2024/03/06 12:56:12;;;;;;;7.97;4.10;;;;;;;;;;5861906;28;20064;-80
2024/03/06 12:59:03;;;;;;;8.13;4.93;;;;;;;;;;5862356;28;20042;-80
2024/03/06 13:01:54;;;;;;;6.78;4.00;;;;;;;;;;5862164;28;20076;-80
2024/03/06 13:04:45;;;;;;;6.15;3.90;;;;;;;;;;5862030;28;20045;-80
2024/03/06 13:07:36;;;;;;;6.60;4.55;;;;;;;;;;5862251;28;20044;-80
2024/03/06 13:10:27;;;;;;;3.83;3.25;;;;;;;;;;5862013;28;20057;-80
2024/03/06 13:13:18;;;;;;;7.22;5.10;;;;;;;;;;5861572;28;20057;-80
2024/03/06 13:16:10;;;;;;;4.82;4.43;;;;;;;;;;5861607;28;20053;-80
2024/03/06 13:19:03;;;;;;;5.15;4.13;;;;;;;;;;5861782;28;20065;-80
2024/03/06 13:21:54;;;;;;;7.22;5.10;;;;;;;;;;5862290;28;20057;-80
2024/03/06 13:24:45;;;;;;;7.40;5.38;;;;;;;;;;5861954;28;20044;-80
2024/03/06 13:27:41;;;;;;;8.75;4.32;;;;;;;;;;5877994;28;20452;-80
2024/03/06 13:30:32;;;;;;;5.55;4.03;;;;;;;;;;5861864;28;20495;-80
2024/03/06 13:33:23;;;;;;;6.15;3.97;;;;;;;;;;5863125;28;20478;-80
2024/03/06 13:36:15;;;;;;;3.55;3.22;;;;;;;;;;5861266;28;20056;-80
2024/03/06 13:39:05;;;;;;;15.27;10.00;;;;;;;;;;5861713;28;20431;-80
2024/03/06 13:41:56;;;;;;;13.05;7.93;;;;;;;;;;5862677;28;20072;-80
2024/03/06 13:44:50;;;;;;;8.27;5.47;;;;;;;;;;5863047;28;20042;-80
2024/03/06 13:47:44;;;;;;;9.75;6.03;;;;;;;;;;5863121;28;20507;-80
2024/03/06 13:50:35;;;;;;;17.63;7.60;;;;;;;;;;5866277;28;20056;-80
2024/03/06 13:53:26;;;;;;;12.10;6.43;;;;;;;;;;5867673;28;20048;-80
2024/03/06 13:56:18;;;;;;;10.48;9.02;;;;;;;;;;5866026;28;20057;-80
2024/03/06 13:59:09;;;;;;;26.42;9.15;;;;;;;;;;5865860;28;20132;-80
2024/03/06 14:02:01;;;;;;;9.15;6.70;;;;;;;;;;5866290;28;20475;-80
2024/03/06 14:04:52;;;;;;;13.32;8.77;;;;;;;;;;5857971;28;20419;-80
2024/03/06 14:07:43;;;;;;;5.28;4.78;;;;;;;;;;5849118;28;20057;-80
2024/03/06 14:10:34;;;;;;;7.30;4.35;;;;;;;;;;5866553;28;20124;-80
2024/03/06 14:13:25;;;;;;;4.45;3.85;;;;;;;;;;5865611;28;20415;-80
2024/03/06 14:16:16;;;;;;;12.68;6.90;;;;;;;;;;5866970;28;20052;-80
2024/03/06 14:19:07;;;;;;;10.82;7.60;;;;;;;;;;5849017;28;20046;-80
2024/03/06 14:21:58;;;;;;;11.20;8.43;;;;;;;;;;5866720;28;20049;-80
2024/03/06 14:24:54;;;;;;;9.65;7.22;;;;;;;;;;5865420;28;20045;-80
2024/03/06 14:27:47;;;;;;;12.20;9.77;;;;;;;;;;5865185;28;20048;-80
2024/03/06 14:30:38;;;;;;;18.95;9.98;;;;;;;;;;5865793;28;20128;-80
2024/03/06 14:33:29;;;;;;;12.45;6.85;;;;;;;;;;5866699;28;20063;-80
2024/03/06 14:36:27;;;;;;;10.77;7.97;;;;;;;;;;5865060;28;20053;-80
2024/03/06 14:39:26;;;;;;;13.40;10.40;;;;;;;;;;5865101;28;20045;-80
2024/03/06 14:42:18;;;;;;;;;;;;;;;;;;5866829;28;20041;-80
2024/03/06 14:45:09;;;;;;;11.27;6.05;;;;;;;;;;5864758;28;19925;-80
2024/03/06 14:48:02;;;;;;;7.30;5.22;;;;;;;;;;5864409;28;20056;-80
2024/03/06 14:50:53;;;;;;;9.00;5.65;;;;;;;;;;5864479;28;20132;-80
2024/03/06 14:53:45;;;;;;;5.82;4.82;;;;;;;;;;5864646;28;20469;-80
2024/03/06 14:56:37;;;;;;;5.70;4.03;;;;;;;;;;5864549;28;20073;-80
2024/03/06 14:59:28;;;;;;;6.93;4.90;;;;;;;;;;5859947;28;20052;-80
2024/03/06 15:02:30;;;;;;;6.93;5.20;;;;;;;;;;5864195;28;20045;-80
2024/03/06 15:05:21;;;;;;;5.93;4.45;;;;;;;;;;5864553;28;20102;-80
2024/03/06 15:08:12;;;;;;;9.90;5.85;;;;;;;;;;5864037;28;20061;-80
2024/03/06 15:11:03;;;;;;;8.48;4.75;;;;;;;;;;5864092;28;20515;-80
2024/03/06 15:13:54;;;;;;;5.38;4.43;;;;;;;;;;5864429;28;20754;-80
2024/03/06 15:16:45;;;;;;;5.25;3.95;;;;;;;;;;5863591;28;20042;-80
2024/03/06 15:19:37;;;;;;;5.68;4.93;;;;;;;;;;5863398;28;20046;-80
2024/03/06 15:22:28;;;;;;;6.68;4.55;;;;;;;;;;5863541;28;20120;-80
2024/03/06 15:25:19;;;;;;;12.93;5.85;;;;;;;;;;5864155;28;20107;-80
2024/03/06 15:28:11;;;;;;;5.03;4.25;;;;;;;;;;5865838;28;20053;-80
2024/03/06 15:31:03;;;;;;;4.63;4.15;;;;;;;;;;5863914;28;20095;-80
2024/03/06 15:34:00;;;;;;;6.22;4.35;;;;;;;;;;5864637;28;20053;-80
2024/03/06 15:36:51;;;;;;;6.40;4.15;;;;;;;;;;5847882;28;20049;-80
2024/03/06 15:39:47;;;;;;;5.53;4.57;;;;;;;;;;5880166;28;20384;-80
2024/03/06 15:42:38;;;;;;;6.22;4.35;;;;;;;;;;5864478;28;20041;-80
2024/03/06 15:45:29;;;;;;;8.52;6.78;;;;;;;;;;5863278;28;20407;-80
2024/03/06 15:48:19;;;;;;;5.72;4.65;;;;;;;;;;5862598;28;20053;-80
2024/03/06 15:51:10;;;;;;;14.73;7.90;;;;;;;;;;5863968;28;20427;-80
2024/03/06 15:54:01;;;;;;;13.70;9.02;;;;;;;;;;5863173;28;20064;-80
2024/03/06 15:56:52;;;;;;;16.98;11.88;;;;;;;;;;5863009;28;20143;-80
2024/03/06 15:59:43;;;;;;;10.23;5.80;;;;;;;;;;5862872;28;20100;-80
2024/03/06 16:02:34;;;;;;;8.40;4.30;;;;;;;;;;5863785;28;20124;-81
2024/03/06 16:05:26;;;;;;;20.98;10.45;;;;;;;;;;5862589;28;20045;-80
2024/03/06 16:08:17;;;;;;;13.88;9.40;;;;;;;;;;5862794;28;20041;-80
2024/03/06 16:11:08;;;;;;;8.48;7.10;;;;;;;;;;5861477;28;20060;-81
2024/03/06 16:14:00;;;;;;;14.68;8.13;;;;;;;;;;5862889;28;20053;-80
2024/03/06 16:16:51;;;;;;;20.67;9.30;;;;;;;;;;5839573;28;20484;-80
2024/03/06 16:19:42;;;;;;;13.55;9.63;;;;;;;;;;5861372;28;20045;-80
2024/03/06 16:22:37;;;;;;;12.93;10.13;;;;;;;;;;5861913;28;20293;-80
2024/03/06 16:25:28;;;;;;;9.65;7.47;;;;;;;;;;5861451;28;20046;-81
2024/03/06 16:28:19;;;;;;;10.35;4.78;;;;;;;;;;5861602;28;20715;-81
2024/03/06 16:31:10;;;;;;;14.50;7.85;;;;;;;;;;5878009;28;20091;-80
2024/03/06 16:34:02;;;;;;;7.65;5.57;;;;;;;;;;5861524;28;20045;-80
2024/03/06 16:36:53;;;;;;;7.97;5.85;;;;;;;;;;5861584;28;20052;-80
2024/03/06 16:39:47;;;;;;;6.45;5.82;;;;;;;;;;5862778;28;20124;-81
2024/03/06 16:42:38;;;;;;;6.80;5.43;;;;;;;;;;5861461;28;20038;-81
2024/03/06 16:45:29;;;;;;;9.93;6.72;;;;;;;;;;5877800;28;20618;-80
2024/03/06 16:48:20;;;;;;;6.47;4.55;;;;;;;;;;5877896;28;20049;-80
2024/03/06 16:51:18;;;;;;;6.00;5.47;;;;;;;;;;5861088;28;20054;-80
2024/03/06 16:54:09;;;;;;;5.97;4.35;;;;;;;;;;5862675;28;20071;-80
2024/03/06 16:57:00;;;;;;;14.50;5.70;;;;;;;;;;5861356;28;20130;-81
2024/03/06 16:59:51;;;;;;;5.88;4.75;;;;;;;;;;5861181;28;20049;-81
2024/03/06 17:02:43;;;;;;;12.85;7.45;;;;;;;;;;5861094;28;20046;-80
2024/03/06 17:05:34;;;;;;;5.68;5.07;;;;;;;;;;5860840;28;20131;-80
2024/03/06 17:08:25;;;;;;;21.58;4.28;;;;;;;;;;5877056;28;20385;-81
2024/03/06 17:11:17;;;;;;;4.85;4.13;;;;;;;;;;5860780;28;20045;-80